Latest Coastal Weather Observations for Gunn Point

IDD60701

Issued at 3:11 am CST Sunday 4 December 2016 (issued every 10 minutes, with the page automatically refreshed every 10 minutes)

About coastal observations | Map of coastal stations | Coastal observations for NT | Marine services | Other Formats
Station Details ID: 014023 Name: GUNN POINT Lat: -12.25 Lon: 131.04 Height: 25.0 m
Data from the previous 72 hours. | See also: Recent months for locations in Northern Territory
Date/Time
CST
Temp
°C
Wind Pressure Rain since
9am
mm
Weather Cloud Vis
km
Sea
Height
m
Swell
Dir  Spd
kts
Gust
kts
hPa Trend Height
m
Period
s
Dir
04/03:00am 25.1 CALM 0 0 1008.2 - 0.0 - - - - - - -
04/02:30am 24.9 CALM 0 2 1008.2 - 0.0 - - - - - - -
04/02:00am 25.0 CALM 0 0 1008.5 - 0.0 - - - - - - -
04/01:30am 25.1 CALM 0 0 1008.9 - 0.0 - - - - - - -
04/01:00am 25.0 CALM 0 0 1009.3 - 0.0 - - - - - - -
04/12:30am 25.0 CALM 0 0 1009.7 - 0.0 - - - - - - -
04/12:00am 25.1 CALM 0 0 1010.0 - 0.0 - - - - - - -
 
Date/Time
CST
Temp
°C
Wind Pressure Rain since
9am
mm
Weather Cloud Vis
km
Sea
Height
m
Swell
Dir  Spd
kts
Gust
kts
hPa Trend Height
m
Period
s
Dir
03/11:30pm 25.4 CALM 0 0 1010.4 - 0.0 - - - - - - -
03/11:00pm 25.4 CALM 0 0 1010.6 - 0.0 - - - - - - -
03/10:30pm 25.7 CALM 0 0 1010.8 - 0.0 - - - - - - -
03/10:00pm 26.1 CALM 0 0 1010.7 - 0.0 - - - - - - -
03/09:30pm 26.4 CALM 0 0 1010.4 - 0.0 - - - - - - -
03/09:00pm 27.1 CALM 0 0 1010.1 - 0.0 - - - - - - -
03/08:30pm 27.3 CALM 0 0 1009.8 - 0.0 - - - - - - -
03/08:00pm 27.7 CALM 0 0 1009.5 - 0.0 - - - - - - -
03/07:30pm 28.5 CALM 0 0 1009.3 - 0.0 - - - - - - -
03/07:00pm 28.5 NW 1 3 1008.7 - 0.0 - - - - - - -
03/06:30pm 29.1 NNW 1 4 1008.5 - 0.0 - - - - - - -
03/06:00pm 29.6 WNW 1 5 1008.5 - 0.0 - - - - - - -
03/05:30pm 30.2 NNW 4 8 1008.4 - 0.0 - - - - - - -
03/05:00pm 31.5 N 3 5 1008.2 - 0.0 - - - - - - -
03/04:30pm 31.1 N 2 4 1007.9 - 0.0 - - - - - - -
03/04:00pm 31.3 N 3 7 1007.8 - 0.0 - - - - - - -
03/03:30pm 31.9 N 4 8 1007.6 - 0.0 - - - - - - -
03/03:00pm 33.0 N 4 8 1008.1 - 0.0 - - - - - - -
03/02:30pm 33.3 NNE 6 9 1008.1 - 0.0 - - - - - - -
03/02:00pm 33.3 NE 4 8 1008.6 - 0.0 - - - - - - -
03/01:30pm 32.7 NE 6 9 1008.8 - 0.0 - - - - - - -
03/01:00pm 33.1 NE 5 11 1008.8 - 0.0 - - - - - - -
03/12:30pm 32.5 ENE 5 11 1009.4 - 0.0 - - - - - - -
03/12:00pm 32.6 ENE 6 14 1009.9 - 0.0 - - - - - - -
03/11:30am 32.2 NNE 5 10 1010.1 - 0.0 - - - - - - -
03/11:00am 32.0 NE 4 8 1010.4 - 0.0 - - - - - - -
03/10:30am 31.1 NE 4 9 1010.8 - 0.0 - - - - - - -
03/10:00am 30.1 NE 2 4 1010.9 - 0.0 - - - - - - -
03/09:30am 30.8 NE 3 6 1011.1 - 0.0 - - - - - - -
03/09:00am 29.6 ENE 4 8 1010.5 - 0.0 - - - - - - -
03/08:30am 29.3 E 3 6 1010.4 - 0.0 - - - - - - -
03/08:00am 29.1 E 1 3 1010.3 - 0.0 - - - - - - -
03/07:30am 28.2 E 1 2 1009.8 - 0.0 - - - - - - -
03/07:00am 26.2 CALM 0 1 1009.5 - 0.0 - - - - - - -
03/06:30am 24.9 CALM 0 0 1009.2 - 0.0 - - - - - - -
03/06:00am 24.8 CALM 0 0 1008.6 - 0.0 - - - - - - -
03/05:30am 25.0 CALM 0 0 1008.5 - 0.0 - - - - - - -
03/05:00am 25.2 CALM 0 0 1008.6 - 0.0 - - - - - - -
03/04:30am 25.3 CALM 0 0 1008.3 - 0.0 - - - - - - -
03/04:00am 25.2 CALM 0 2 1007.9 - 0.0 - - - - - - -
03/03:30am 25.2 CALM 0 0 1008.2 - 0.0 - - - - - - -
03/03:00am 25.4 CALM 0 0 1008.4 - 0.0 - - - - - - -
03/02:30am 25.7 CALM 0 0 1008.4 - 0.0 - - - - - - -
03/02:00am 25.7 CALM 0 0 1008.4 - 0.0 - - - - - - -
03/01:30am 25.9 CALM 0 0 1008.8 - 0.0 - - - - - - -
03/01:00am 26.3 CALM 0 0 1009.2 - 0.0 - - - - - - -
03/12:30am 26.8 CALM 0 0 1009.3 - 0.0 - - - - - - -
03/12:00am 27.2 NE 1 2 1009.1 - 0.0 - - - - - - -
 
Date/Time
CST
Temp
°C
Wind Pressure Rain since
9am
mm
Weather Cloud Vis
km
Sea
Height
m
Swell
Dir  Spd
kts
Gust
kts
hPa Trend Height
m
Period
s
Dir
02/11:30pm 27.3 CALM 0 2 1009.2 - 0.0 - - - - - - -
02/11:00pm 27.7 N 1 3 1009.4 - 0.0 - - - - - - -
02/10:30pm 27.9 N 2 4 1009.6 - 0.0 - - - - - - -
02/10:00pm 28.2 N 2 5 1009.5 - 0.0 - - - - - - -
02/09:30pm 28.3 N 2 6 1009.2 - 0.0 - - - - - - -
02/09:00pm 28.4 N 2 5 1009.0 - 0.0 - - - - - - -
02/08:30pm 28.6 N 2 4 1008.5 - 0.0 - - - - - - -
02/08:00pm 29.0 NNE 3 7 1008.0 - 0.0 - - - - - - -
02/07:30pm 29.2 NNE 4 7 1007.5 - 0.0 - - - - - - -
02/07:00pm 29.4 NNE 4 7 1007.4 - 0.0 - - - - - - -
02/06:30pm 30.0 NE 5 10 1006.9 - 0.0 - - - - - - -
02/06:00pm 30.7 NE 3 7 1006.7 - 0.0 - - - - - - -
02/05:30pm 31.1 ENE 4 7 1006.4 - 0.0 - - - - - - -
02/05:00pm 31.3 ENE 6 9 1006.2 - 0.0 - - - - - - -
02/04:30pm 32.0 ENE 6 9 1006.6 - 0.0 - - - - - - -
02/04:00pm 32.7 ENE 4 7 1006.9 - 0.0 - - - - - - -
02/03:30pm 32.6 ENE 6 9 1007.1 - 0.0 - - - - - - -
02/03:00pm 33.3 NE 6 12 1006.9 - 0.0 - - - - - - -
02/02:30pm 33.7 NE 6 10 1006.9 - 0.0 - - - - - - -
02/02:00pm 34.3 ENE 4 8 1007.2 - 0.0 - - - - - - -
02/01:30pm 33.9 NE 4 9 1007.6 - 0.0 - - - - - - -
02/01:00pm 33.3 ENE 5 10 1008.1 - 0.0 - - - - - - -
02/12:30pm 32.8 ENE 5 9 1008.6 - 0.0 - - - - - - -
02/12:00pm 32.8 NNE 5 10 1009.2 - 0.0 - - - - - - -
02/11:30am 31.9 NE 5 12 1009.4 - 0.0 - - - - - - -
02/11:00am 31.5 NE 7 13 1010.0 - 0.0 - - - - - - -
02/10:30am 31.4 NE 6 10 1010.0 - 0.0 - - - - - - -
02/10:00am 30.5 ENE 8 13 1010.4 - 0.0 - - - - - - -
02/09:30am 29.9 NE 7 11 1010.0 - 0.0 - - - - - - -
02/09:00am 29.0 ENE 7 9 1009.7 - 0.0 - - - - - - -
02/08:30am 27.6 ENE 7 12 1009.7 - 0.0 - - - - - - -
02/08:00am 27.3 E 5 9 1009.9 - 0.0 - - - - - - -
02/07:30am 26.5 ENE 5 7 1009.6 - 0.0 - - - - - - -
02/07:00am 25.3 E 6 9 1009.9 - 0.0 - - - - - - -
02/06:30am 25.1 ESE 7 14 1009.7 - 0.0 - - - - - - -
02/06:00am 25.3 SE 6 10 1009.4 - 0.0 - - - - - - -
02/05:30am 25.3 SE 5 9 1008.9 - 0.0 - - - - - - -
02/05:00am 25.0 ESE 4 10 1008.1 - 0.0 - - - - - - -
02/04:30am 25.2 ESE 4 7 1007.8 - 0.0 - - - - - - -
02/04:00am 25.4 SE 4 7 1007.7 - 0.0 - - - - - - -
02/03:30am 25.6 SE 2 4 1007.5 - 0.0 - - - - - - -
02/03:00am 25.6 SE 3 8 1007.8 - 0.0 - - - - - - -
02/02:30am 25.2 SE 1 3 1008.0 - 0.0 - - - - - - -
02/02:00am 25.0 SSE 1 4 1007.8 - 0.0 - - - - - - -
02/01:30am 25.0 CALM 0 0 1008.0 - 0.0 - - - - - - -
02/01:00am 25.0 CALM 0 0 1008.1 - 0.0 - - - - - - -
02/12:30am 25.2 CALM 0 0 1008.7 - 0.0 - - - - - - -
02/12:00am 25.2 CALM 0 2 1009.2 - 0.0 - - - - - - -
 
Date/Time
CST
Temp
°C
Wind Pressure Rain since
9am
mm
Weather Cloud Vis
km
Sea
Height
m
Swell
Dir  Spd
kts
Gust
kts
hPa Trend Height
m
Period
s
Dir
01/11:30pm 25.3 CALM 0 0 1009.1 - 0.0 - - - - - - -
01/11:00pm 25.4 CALM 0 0 1009.0 - 0.0 - - - - - - -
01/10:30pm 25.8 CALM 0 0 1008.9 - 0.0 - - - - - - -
01/10:00pm 25.6 NNE 1 2 1007.9 - 0.0 - - - - - - -
01/09:30pm 26.2 CALM 0 0 1007.6 - 0.0 - - - - - - -
01/09:00pm 26.9 SE 1 3 1007.4 - 0.0 - - - - - - -
01/08:30pm 26.9 NNE 1 2 1007.1 - 0.0 - - - - - - -
01/08:00pm 27.4 CALM 0 1 1006.9 - 0.0 - - - - - - -
01/07:30pm 28.3 NNW 1 3 1006.6 - 0.0 - - - - - - -
01/07:00pm 29.1 N 2 6 1006.5 - 0.0 - - - - - - -
01/06:30pm 31.4 CALM 0 0 1005.9 - 0.0 - - - - - - -
01/06:00pm 31.6 CALM 0 2 1005.3 - 0.0 - - - - - - -
01/05:30pm 31.9 NW 2 5 1005.0 - 0.0 - - - - - - -
01/05:00pm 32.3 WNW 3 5 1005.2 - 0.0 - - - - - - -
01/04:30pm 32.3 WNW 5 8 1005.0 - 0.0 - - - - - - -
01/04:00pm 32.3 WNW 5 9 1005.2 - 0.0 - - - - - - -
01/03:30pm 32.4 W 5 10 1006.0 - 0.0 - - - - - - -
01/03:00pm 32.4 W 5 8 1006.4 - 0.0 - - - - - - -
01/02:30pm 32.7 W 5 9 1007.0 - 0.0 - - - - - - -
01/02:00pm 33.1 WNW 5 10 1006.9 - 0.0 - - - - - - -
01/01:30pm 32.5 WNW 5 10 1007.0 - 0.0 - - - - - - -
01/01:00pm 32.0 WNW 4 9 1007.3 - 0.0 - - - - - - -
01/12:30pm 31.8 W 3 7 1007.8 - 0.0 - - - - - - -
01/12:00pm 31.7 W 3 5 1008.2 - 0.0 - - - - - - -
01/11:30am 31.2 WNW 3 7 1008.5 - 0.0 - - - - - - -
01/11:00am 31.4 NW 3 5 1008.8 - 0.0 - - - - - - -
01/10:30am 30.3 N 1 2 1009.4 - 0.0 - - - - - - -
01/10:00am 30.4 N 1 5 1009.6 - 0.0 - - - - - - -
01/09:30am 29.7 NE 1 3 1009.4 - 0.0 - - - - - - -
01/09:00am 27.7 E 1 3 1009.7 - 0.0 - - - - - - -
01/08:30am 26.9 ENE 2 3 1009.3 - 0.0 - - - - - - -
01/08:00am 26.9 E 1 2 1009.3 - 0.0 - - - - - - -
01/07:30am 26.4 ESE 3 4 1009.2 - 0.0 - - - - - - -
01/07:00am 25.1 ESE 3 4 1009.0 - 0.0 - - - - - - -
01/06:30am 24.5 SE 2 4 1008.8 - 0.0 - - - - - - -
01/06:00am 24.5 CALM 0 0 1007.8 - 0.0 - - - - - - -
01/05:30am 24.9 CALM 0 2 1007.9 - 0.0 - - - - - - -
01/05:00am 25.2 SE 3 4 1008.2 - 0.0 - - - - - - -
01/04:30am 25.1 SE 2 3 1008.2 - 0.0 - - - - - - -
01/04:00am 24.9 CALM 0 0 1008.0 - 0.0 - - - - - - -
01/03:30am 25.2 CALM 0 0 1007.4 - 0.0 - - - - - - -

Other Formats:

Comma delimited format used in spreadsheet applications
http://www.bom.gov.au/fwo/IDD60701/IDD60701.99501.axf

JavaScript Object Notation format (JSON) in row-major order
http://www.bom.gov.au/fwo/IDD60701/IDD60701.99501.json